sensor_id;sensor_type;location;lat;lon;timestamp;P1;P2;P0
31163;PMS5003;17796;49.296;-117.656;2022-11-15T00:02:01;72;64;
31163;PMS5003;17796;49.296;-117.656;2022-11-15T00:17:06;65;60;
31163;PMS5003;17796;49.296;-117.656;2022-11-15T00:32:10;60;59;
31163;PMS5003;17796;49.296;-117.656;2022-11-15T00:47:14;70;59;
31163;PMS5003;17796;49.296;-117.656;2022-11-15T01:02:18;65;60;
31163;PMS5003;17796;49.296;-117.656;2022-11-15T01:17:23;62;58;
31163;PMS5003;17796;49.296;-117.656;2022-11-15T01:32:27;77;61;
31163;PMS5003;17796;49.296;-117.656;2022-11-15T01:47:33;55;51;
31163;PMS5003;17796;49.296;-117.656;2022-11-15T02:02:39;47;44;
31163;PMS5003;17796;49.296;-117.656;2022-11-15T02:18:04;50;47;
31163;PMS5003;17796;49.296;-117.656;2022-11-15T02:33:21;68;62;
31163;PMS5003;17796;49.296;-117.656;2022-11-15T02:48:29;91;78;
31163;PMS5003;17796;49.296;-117.656;2022-11-15T03:03:48;88;73;
31163;PMS5003;17796;49.296;-117.656;2022-11-15T03:18:59;89;70;
31163;PMS5003;17796;49.296;-117.656;2022-11-15T03:34:06;71;62;
31163;PMS5003;17796;49.296;-117.656;2022-11-15T03:49:17;77;68;
31163;PMS5003;17796;49.296;-117.656;2022-11-15T04:04:22;70;65;
31163;PMS5003;17796;49.296;-117.656;2022-11-15T04:19:26;70;62;
31163;PMS5003;17796;49.296;-117.656;2022-11-15T04:34:30;74;67;
31163;PMS5003;17796;49.296;-117.656;2022-11-15T04:49:34;75;69;
31163;PMS5003;17796;49.296;-117.656;2022-11-15T05:04:38;81;74;
31163;PMS5003;17796;49.296;-117.656;2022-11-15T05:19:41;76;65;
31163;PMS5003;17796;49.296;-117.656;2022-11-15T05:34:46;77;67;
31163;PMS5003;17796;49.296;-117.656;2022-11-15T05:49:53;81;71;
31163;PMS5003;17796;49.296;-117.656;2022-11-15T06:04:57;70;55;
31163;PMS5003;17796;49.296;-117.656;2022-11-15T06:20:01;80;68;
31163;PMS5003;17796;49.296;-117.656;2022-11-15T06:35:06;68;61;
31163;PMS5003;17796;49.296;-117.656;2022-11-15T06:50:10;57;48;
31163;PMS5003;17796;49.296;-117.656;2022-11-15T07:05:17;64;55;
31163;PMS5003;17796;49.296;-117.656;2022-11-15T07:20:22;56;48;
31163;PMS5003;17796;49.296;-117.656;2022-11-15T07:35:27;52;47;
31163;PMS5003;17796;49.296;-117.656;2022-11-15T07:50:31;29;27;
31163;PMS5003;17796;49.296;-117.656;2022-11-15T08:05:37;28;22;
31163;PMS5003;17796;49.296;-117.656;2022-11-15T08:20:42;25;23;
31163;PMS5003;17796;49.296;-117.656;2022-11-15T08:35:46;18;15;
31163;PMS5003;17796;49.296;-117.656;2022-11-15T08:50:53;25;20;
31163;PMS5003;17796;49.296;-117.656;2022-11-15T09:05:57;21;20;
31163;PMS5003;17796;49.296;-117.656;2022-11-15T09:21:19;19;19;
31163;PMS5003;17796;49.296;-117.656;2022-11-15T09:36:26;20;16;
31163;PMS5003;17796;49.296;-117.656;2022-11-15T09:51:37;20;17;
31163;PMS5003;17796;49.296;-117.656;2022-11-15T10:06:46;22;17;
31163;PMS5003;17796;49.296;-117.656;2022-11-15T10:22:05;20;19;
31163;PMS5003;17796;49.296;-117.656;2022-11-15T10:37:14;19;18;
31163;PMS5003;17796;49.296;-117.656;2022-11-15T10:52:21;17;17;
31163;PMS5003;17796;49.296;-117.656;2022-11-15T11:07:27;17;14;
31163;PMS5003;17796;49.296;-117.656;2022-11-15T11:22:37;22;21;
31163;PMS5003;17796;49.296;-117.656;2022-11-15T11:37:49;17;14;
31163;PMS5003;17796;49.296;-117.656;2022-11-15T11:52:59;23;23;
31163;PMS5003;17796;49.296;-117.656;2022-11-15T12:08:20;27;22;
31163;PMS5003;17796;49.296;-117.656;2022-11-15T12:23:35;18;18;
31163;PMS5003;17796;49.296;-117.656;2022-11-15T12:39:10;26;19;
31163;PMS5003;17796;49.296;-117.656;2022-11-15T12:56:34;27;23;
31163;PMS5003;17796;49.296;-117.656;2022-11-15T13:11:55;29;21;
31163;PMS5003;17796;49.296;-117.656;2022-11-15T13:27:00;27;25;
31163;PMS5003;17796;49.296;-117.656;2022-11-15T13:42:12;25;24;
31163;PMS5003;17796;49.296;-117.656;2022-11-15T13:57:25;29;22;
31163;PMS5003;17796;49.296;-117.656;2022-11-15T14:12:36;28;21;
31163;PMS5003;17796;49.296;-117.656;2022-11-15T14:27:41;25;21;
31163;PMS5003;17796;49.296;-117.656;2022-11-15T14:42:46;25;25;
31163;PMS5003;17796;49.296;-117.656;2022-11-15T14:57:51;40;30;
31163;PMS5003;17796;49.296;-117.656;2022-11-15T15:12:54;31;25;
31163;PMS5003;17796;49.296;-117.656;2022-11-15T15:27:58;37;30;
31163;PMS5003;17796;49.296;-117.656;2022-11-15T15:43:02;23;22;
31163;PMS5003;17796;49.296;-117.656;2022-11-15T15:58:06;30;22;
31163;PMS5003;17796;49.296;-117.656;2022-11-15T16:13:10;21;18;
31163;PMS5003;17796;49.296;-117.656;2022-11-15T16:28:18;25;24;
31163;PMS5003;17796;49.296;-117.656;2022-11-15T16:43:22;24;18;
31163;PMS5003;17796;49.296;-117.656;2022-11-15T16:58:26;22;16;
31163;PMS5003;17796;49.296;-117.656;2022-11-15T17:13:30;20;19;
31163;PMS5003;17796;49.296;-117.656;2022-11-15T17:28:34;18;17;
31163;PMS5003;17796;49.296;-117.656;2022-11-15T17:43:39;20;18;
31163;PMS5003;17796;49.296;-117.656;2022-11-15T17:58:48;23;19;
31163;PMS5003;17796;49.296;-117.656;2022-11-15T18:13:54;18;18;
31163;PMS5003;17796;49.296;-117.656;2022-11-15T18:29:03;28;21;
31163;PMS5003;17796;49.296;-117.656;2022-11-15T18:44:07;24;21;
31163;PMS5003;17796;49.296;-117.656;2022-11-15T18:59:10;21;17;
31163;PMS5003;17796;49.296;-117.656;2022-11-15T19:14:16;23;17;
31163;PMS5003;17796;49.296;-117.656;2022-11-15T19:29:20;19;15;
31163;PMS5003;17796;49.296;-117.656;2022-11-15T19:44:24;16;16;
31163;PMS5003;17796;49.296;-117.656;2022-11-15T19:59:28;25;20;
31163;PMS5003;17796;49.296;-117.656;2022-11-15T20:14:32;18;16;
31163;PMS5003;17796;49.296;-117.656;2022-11-15T20:29:36;26;17;
31163;PMS5003;17796;49.296;-117.656;2022-11-15T20:44:39;20;17;
31163;PMS5003;17796;49.296;-117.656;2022-11-15T20:59:46;28;22;
31163;PMS5003;17796;49.296;-117.656;2022-11-15T21:14:49;20;17;
31163;PMS5003;17796;49.296;-117.656;2022-11-15T21:29:54;16;16;
31163;PMS5003;17796;49.296;-117.656;2022-11-15T21:44:58;17;16;
31163;PMS5003;17796;49.296;-117.656;2022-11-15T22:00:03;13;13;
31163;PMS5003;17796;49.296;-117.656;2022-11-15T22:15:08;16;16;
31163;PMS5003;17796;49.296;-117.656;2022-11-15T22:30:12;16;14;
31163;PMS5003;17796;49.296;-117.656;2022-11-15T22:45:16;16;13;
31163;PMS5003;17796;49.296;-117.656;2022-11-15T23:00:20;20;17;
31163;PMS5003;17796;49.296;-117.656;2022-11-15T23:15:24;18;13;
31163;PMS5003;17796;49.296;-117.656;2022-11-15T23:30:28;17;16;
31163;PMS5003;17796;49.296;-117.656;2022-11-15T23:45:33;18;16;
